createdAt,value
2022-08-28T00:01:42.639Z,15.55
2022-08-28T00:06:46.058Z,15.48
2022-08-28T00:11:50.531Z,15.41
2022-08-28T00:16:54.587Z,15.33
2022-08-28T00:21:57.613Z,15.29
2022-08-28T00:27:19.896Z,15.21
2022-08-28T00:32:23.758Z,15.18
2022-08-28T00:37:26.834Z,15.12
2022-08-28T00:42:38.169Z,15.05
2022-08-28T00:47:41.656Z,14.98
2022-08-28T00:52:48.146Z,14.91
2022-08-28T00:57:55.911Z,14.88
2022-08-28T01:02:59.446Z,14.86
2022-08-28T01:08:05.408Z,14.79
2022-08-28T01:13:11.671Z,14.78
2022-08-28T01:18:17.020Z,14.74
2022-08-28T01:23:30.224Z,14.69
2022-08-28T01:28:34.667Z,14.67
2022-08-28T01:33:38.003Z,14.65
2022-08-28T01:38:49.386Z,14.65
2022-08-28T01:43:53.929Z,14.60
2022-08-28T01:48:56.934Z,14.58
2022-08-28T01:53:59.948Z,14.51
2022-08-28T01:59:09.771Z,14.50
2022-08-28T02:04:13.409Z,14.50
2022-08-28T02:09:16.593Z,14.47
2022-08-28T02:14:22.421Z,14.45
2022-08-28T02:19:26.191Z,14.42
2022-08-28T02:24:29.516Z,14.37
2022-08-28T02:29:34.248Z,14.37
2022-08-28T02:34:38.060Z,14.35
2022-08-28T02:39:42.218Z,14.30
2022-08-28T02:44:46.668Z,14.29
2022-08-28T02:49:49.994Z,14.27
2022-08-28T02:54:52.901Z,14.24
2022-08-28T02:59:58.995Z,14.23
2022-08-28T03:05:02.019Z,14.18
2022-08-28T03:10:07.208Z,14.10
2022-08-28T03:15:12.528Z,14.07
2022-08-28T03:20:15.665Z,14.06
2022-08-28T03:25:18.877Z,14.03
2022-08-28T03:30:23.975Z,14.00
2022-08-28T03:35:27.264Z,13.98
2022-08-28T03:40:30.703Z,13.96
2022-08-28T03:45:35.303Z,13.96
2022-08-28T03:50:41.707Z,13.98
2022-08-28T03:55:44.797Z,13.97
2022-08-28T04:00:50.334Z,13.96
2022-08-28T04:05:54.135Z,13.95
2022-08-28T04:10:59.696Z,13.91
2022-08-28T04:16:07.886Z,13.89
2022-08-28T04:21:13.817Z,13.87
2022-08-28T04:26:20.011Z,13.82
2022-08-28T04:31:31.819Z,13.77
2022-08-28T04:36:37.822Z,13.75
2022-08-28T04:41:40.905Z,13.75
2022-08-28T04:46:45.321Z,13.73
2022-08-28T04:51:51.351Z,13.78
2022-08-28T04:56:54.421Z,13.81
2022-08-28T05:01:58.895Z,13.80
2022-08-28T05:07:01.966Z,13.78
2022-08-28T05:12:06.669Z,13.80
2022-08-28T05:17:13.793Z,13.84
2022-08-28T05:22:16.803Z,13.87
2022-08-28T05:27:19.966Z,13.89
2022-08-28T05:32:24.488Z,13.92
2022-08-28T05:37:27.771Z,13.98
2022-08-28T05:42:31.892Z,14.01
2022-08-28T05:47:39.893Z,14.08
2022-08-28T05:52:43.457Z,14.10
2022-08-28T05:57:46.535Z,14.19
2022-08-28T06:02:50.848Z,14.22
2022-08-28T06:07:53.868Z,14.27
2022-08-28T06:12:56.959Z,14.32
2022-08-28T06:18:01.316Z,14.39
2022-08-28T06:23:04.498Z,14.47
2022-08-28T06:28:08.804Z,14.58
2022-08-28T06:33:16.450Z,14.73
2022-08-28T06:38:21.310Z,14.83
2022-08-28T06:43:26.683Z,14.98
2022-08-28T06:48:31.769Z,15.14
2022-08-28T06:53:37.189Z,15.27
2022-08-28T06:58:42.506Z,15.40
2022-08-28T07:03:56.898Z,15.56
2022-08-28T07:08:59.947Z,15.72
2022-08-28T07:14:04.172Z,15.83
2022-08-28T07:19:13.235Z,15.98
2022-08-28T07:24:17.600Z,16.17
2022-08-28T07:29:21.788Z,16.32
2022-08-28T07:34:27.462Z,16.49
2022-08-28T07:39:31.099Z,16.65
2022-08-28T07:44:54.934Z,16.80
2022-08-28T07:50:03.097Z,17.04
2022-08-28T07:55:09.830Z,17.30
2022-08-28T08:00:14.168Z,17.56
2022-08-28T08:05:18.788Z,17.89
2022-08-28T08:10:23.527Z,18.19
2022-08-28T08:15:30.705Z,18.60
2022-08-28T08:20:37.783Z,19.01
2022-08-28T08:25:40.997Z,19.45
2022-08-28T08:31:06.056Z,19.90
2022-08-28T08:36:12.850Z,20.14
2022-08-28T08:41:30.371Z,20.57
2022-08-28T08:46:36.253Z,21.26
2022-08-28T08:51:44.932Z,21.68
2022-08-28T08:56:50.082Z,21.97
2022-08-28T09:02:03.102Z,22.02
2022-08-28T09:07:16.551Z,22.31
2022-08-28T09:12:23.055Z,22.70
2022-08-28T09:17:47.958Z,22.59
2022-08-28T09:22:52.544Z,22.58
2022-08-28T09:28:11.498Z,22.71
2022-08-28T09:33:14.482Z,22.38
2022-08-28T09:38:20.138Z,22.29
2022-08-28T09:43:28.482Z,22.53
2022-08-28T09:48:35.737Z,22.79
2022-08-28T09:53:57.692Z,23.13
2022-08-28T09:59:06.734Z,22.70
2022-08-28T10:04:38.081Z,22.56
2022-08-28T10:09:51.738Z,22.59
2022-08-28T10:15:04.361Z,22.42
2022-08-28T10:20:15.639Z,22.47
2022-08-28T10:25:25.062Z,22.52
2022-08-28T10:30:32.370Z,23.18
2022-08-28T10:35:45.716Z,23.02
2022-08-28T10:40:56.138Z,23.05
2022-08-28T10:46:04.657Z,22.65
2022-08-28T10:51:14.865Z,22.39
2022-08-28T10:56:22.412Z,22.58
2022-08-28T11:01:30.797Z,22.84
2022-08-28T11:06:40.989Z,23.29
2022-08-28T11:11:46.743Z,23.84
2022-08-28T11:16:53.012Z,24.46
2022-08-28T11:22:01.770Z,24.53
2022-08-28T11:27:18.007Z,24.48
2022-08-28T11:32:38.144Z,24.36
2022-08-28T11:37:46.247Z,23.87
2022-08-28T11:42:49.390Z,24.39
2022-08-28T11:47:56.790Z,24.68
2022-08-28T11:53:30.423Z,24.81
2022-08-28T11:58:42.205Z,25.35
2022-08-28T12:03:57.526Z,26.03
2022-08-28T12:09:05.161Z,25.71
2022-08-28T12:14:09.133Z,25.35
2022-08-28T12:19:28.799Z,25.06
2022-08-28T12:24:31.779Z,25.50
2022-08-28T12:29:39.527Z,25.23
2022-08-28T12:35:01.331Z,24.57
2022-08-28T12:40:12.862Z,25.15
2022-08-28T12:45:21.529Z,25.45
2022-08-28T12:50:32.275Z,24.86
2022-08-28T12:55:35.756Z,24.90
2022-08-28T13:00:51.575Z,25.52
2022-08-28T13:06:05.443Z,25.77
2022-08-28T13:11:09.180Z,25.72
2022-08-28T13:16:34.535Z,25.94
2022-08-28T13:21:55.457Z,25.18
2022-08-28T13:27:04.490Z,25.18
2022-08-28T13:32:09.582Z,25.72
2022-08-28T13:37:44.790Z,25.95
2022-08-28T13:42:48.524Z,25.97
2022-08-28T13:47:51.472Z,26.33
2022-08-28T13:52:56.277Z,25.89
2022-08-28T13:57:59.275Z,25.60
2022-08-28T14:03:19.849Z,25.99
2022-08-28T14:08:24.133Z,26.00
2022-08-28T14:13:27.918Z,26.09
2022-08-28T14:18:30.898Z,26.22
2022-08-28T14:23:35.337Z,26.06
2022-08-28T14:28:38.528Z,25.94
2022-08-28T14:33:41.797Z,25.96
2022-08-28T14:38:46.800Z,26.02
2022-08-28T14:43:50.716Z,26.09
2022-08-28T14:48:53.701Z,25.95
2022-08-28T14:53:59.765Z,25.96
2022-08-28T14:59:04.722Z,26.10
2022-08-28T15:04:09.862Z,26.30
2022-08-28T15:09:15.100Z,26.32
2022-08-28T15:14:18.361Z,26.19
2022-08-28T15:19:23.336Z,25.97
2022-08-28T15:24:30.999Z,25.95
2022-08-28T15:29:34.039Z,25.96
2022-08-28T15:34:37.070Z,25.83
2022-08-28T15:39:59.161Z,25.88
2022-08-28T15:45:02.304Z,25.90
2022-08-28T15:50:06.157Z,26.04
2022-08-28T15:55:11.279Z,26.03
2022-08-28T16:00:15.468Z,25.78
2022-08-28T16:05:19.116Z,25.74
2022-08-28T16:10:25.779Z,25.61
2022-08-28T16:15:29.372Z,25.49
2022-08-28T16:20:32.485Z,25.43
2022-08-28T16:25:37.277Z,25.40
2022-08-28T16:30:43.927Z,25.23
2022-08-28T16:35:49.468Z,25.37
2022-08-28T16:40:59.278Z,25.23
2022-08-28T16:46:02.747Z,25.28
2022-08-28T16:51:05.938Z,25.07
2022-08-28T16:56:10.822Z,25.03
2022-08-28T17:01:14.647Z,25.07
2022-08-28T17:06:20.294Z,25.04
2022-08-28T17:11:25.255Z,24.98
2022-08-28T17:16:31.488Z,24.90
2022-08-28T17:21:52.331Z,24.75
2022-08-28T17:26:56.631Z,24.57
2022-08-28T17:31:59.645Z,24.33
2022-08-28T17:37:02.871Z,24.14
2022-08-28T17:42:07.612Z,23.74
2022-08-28T17:47:11.970Z,23.49
2022-08-28T17:52:14.922Z,23.29
2022-08-28T17:57:19.206Z,23.01
2022-08-28T18:02:22.315Z,22.68
2022-08-28T18:07:25.412Z,22.44
2022-08-28T18:12:30.289Z,22.22
2022-08-28T18:17:33.255Z,21.86
2022-08-28T18:22:36.268Z,21.63
2022-08-28T18:27:40.606Z,21.43
2022-08-28T18:32:43.818Z,21.20
2022-08-28T18:37:46.873Z,21.03
2022-08-28T18:42:55.686Z,20.79
2022-08-28T18:47:58.793Z,20.58
2022-08-28T18:53:01.848Z,20.37
2022-08-28T18:58:06.312Z,20.25
2022-08-28T19:03:10.668Z,20.09
2022-08-28T19:08:14.490Z,19.95
2022-08-28T19:13:19.599Z,19.73
2022-08-28T19:18:22.704Z,19.58
2022-08-28T19:23:25.635Z,19.39
2022-08-28T19:28:30.249Z,19.31
2022-08-28T19:33:33.662Z,19.27
2022-08-28T19:38:36.680Z,19.15
2022-08-28T19:43:44.292Z,19.01
2022-08-28T19:48:47.905Z,18.80
2022-08-28T19:53:56.757Z,18.85
2022-08-28T19:59:04.185Z,18.82
2022-08-28T20:04:09.414Z,18.76
2022-08-28T20:09:13.251Z,18.70
2022-08-28T20:14:19.443Z,18.66
2022-08-28T20:19:23.425Z,18.61
2022-08-28T20:24:26.581Z,18.50
2022-08-28T20:29:30.984Z,18.41
2022-08-28T20:34:34.368Z,18.29
2022-08-28T20:39:41.467Z,18.21
2022-08-28T20:44:45.835Z,18.25
2022-08-28T20:49:48.743Z,18.21
2022-08-28T20:54:51.669Z,18.16
2022-08-28T20:59:56.029Z,18.14
2022-08-28T21:04:59.097Z,18.08
2022-08-28T21:10:04.919Z,18.06
2022-08-28T21:15:14.229Z,17.97
2022-08-28T21:20:20.492Z,17.88
2022-08-28T21:25:25.561Z,17.83
2022-08-28T21:30:29.994Z,17.74
2022-08-28T21:35:33.191Z,17.65
2022-08-28T21:40:41.066Z,17.55
2022-08-28T21:45:45.521Z,17.46
2022-08-28T21:50:48.478Z,17.40
2022-08-28T21:55:56.773Z,17.31
2022-08-28T22:01:01.707Z,17.21
2022-08-28T22:06:04.843Z,17.10
2022-08-28T22:11:08.181Z,16.93
2022-08-28T22:16:13.183Z,16.93
2022-08-28T22:21:35.675Z,16.84
2022-08-28T22:26:38.821Z,16.82
2022-08-28T22:31:45.443Z,16.80
2022-08-28T22:36:49.384Z,16.75
2022-08-28T22:41:52.363Z,16.66
2022-08-28T22:46:57.470Z,16.67
2022-08-28T22:52:00.342Z,16.62
2022-08-28T22:57:03.240Z,16.57
2022-08-28T23:02:07.815Z,16.58
2022-08-28T23:07:11.570Z,16.55
2022-08-28T23:12:16.553Z,16.56
2022-08-28T23:17:20.813Z,16.51
2022-08-28T23:22:23.697Z,16.49
2022-08-28T23:27:42.547Z,16.45
2022-08-28T23:32:47.392Z,16.32
2022-08-28T23:37:52.130Z,16.41
2022-08-28T23:42:55.590Z,16.41
2022-08-28T23:47:59.900Z,16.40
2022-08-28T23:53:02.842Z,16.38
2022-08-28T23:58:07.411Z,16.32
